Hlavní strana
METAR-TAF:

METAR-TAF

Letiště :

Gällivare, Švédsko

zeměpisná šířka: 67-09N, zeměpisná délka: 020-39E, výška: 359 m

Aktuální stav počasí

Zpráva byla vytvořena před 27 minutami, v 17:50 UTC
Východoseverovýchodní vítr 9 kt
Teplota -14°C
Vlhkost vzduchu 85%
Tlak 998 hPa
Viditelnost: 2000 m
sníh

METAR: ESNG 221750Z 07009KT 2000 SN VV010 M14/M16 Q0998

Čas: 19:17 (18:17 UTC)

Předpověď počasí

Zpráva byla vytvořena před 47 minutami, v 17:30 UTC
Předpověď platná od 22 v 18 UTC do 22 v 21 UTC
Východní vítr 8 kt
Viditelnost: 3000 m
ve výšce 1500 ft
slabé sněžení
Dočasný
od 22 v 18 UTC do 22 v 21 UTC
Viditelnost: 1200 m
ve výšce 800 ft
sníh

TAF: ESNG 221730Z 2218/2221 08008KT 3000 -SN VV015 TEMPO 2218/2221 1200 SN VV008

Stav a předpovědi počasí z více než 4 000 letišť (zprávy METAR a TAF).

Červené a žluté tečky na mapě představují dostupné meteorologické stanice.

Když kurzor umístíte na tečku, zobrazí se název stanice.

Pak kliknutím zobrazíte stav a předpověď počasí.

Chcete-li změnit mapu, kliknutím na zelené tlačítko se znaménkem +mapu přiblížíte, kliknutím na zelené tlačítko se znaménkem – mapu oddálíte a kliknutím na zelené šipky přejdete na sousední mapy.


METAR-TAF: